• pl
  • eng

Awiacja
Komunikaty METAR z lotnisk wojskowych. 11:01 19.10.2018

METAR EPCE 190930Z 02005KT CAVOK 12/07
Q1024 RMK 122 070 1/1 =

METAR EPDA 190930Z 01002KT 9999 SCT038 14/09
Q1025 RMK 137 073 3/3 =

METAR EPDE 190930Z 26004KT 4000 BR NSC 13/09 Q1021 RMK 128 080 3/1=

METAR EPIR 190930Z 34008KT 4000 BR OVC012 12/12 Q1024 RMK 121 096 8/8
=

METAR EPKS 190930Z VRB01KT 3000 BR OVC004 12/12 Q1024 RMK 122 098
8/8=

METAR EPLK 190930Z NIL=

METAR EPLY 190930Z 32002KT 1200 BR OVC003 11/11 Q1024 RMK 109 098
8/8=

METAR EPMB 190930Z 03008KT CAVOK 14/07 Q1024 RMK 137 063
2/2=

METAR EPMI 190930Z 32004KT 260V360 9999 SCT020 BKN050 12/09 Q1025
RMK 121 084 5/3=
654
SAPL97 SOPR 190930 RRD

METAR EPMM 190930Z 34005KT 310V020 0600 R26/1700U FG OVC002 09/09
Q1022 RMK 088 099 8/8=

METAR EPNA 190930Z NIL=

METAR EPOK 190930Z 01008KT 320V040 9999 FEW030 13/06
Q1024 RMK 133 061 1/1 =

METAR EPPR 190930Z 01006KT 9999 FEW030 14/05 Q1024 RMK 140 053 2/2=

METAR EPPW 190930Z 33002KT 7000 BKN008 OVC024 13/10 Q1023
RMK 132 083 8/5 =

METAR EPRA 190930Z 31006KT 5000 BR SCT100 BKN200 14/10 Q1021 RMK 135
078 5/3=

METAR EPSN 190930Z 26003KT 210V320 8000 BKN005 09/09 Q1025 RMK 093
099 6/6=

METAR EPTM 190930Z 31004KT 1000 BR OVC003 11/09 Q1022 RMK 107 087
8/8=
 METAR EPPR
Lokalizacja:EPPR Pruszcz Gdański
Czas:09:30 UTC
Średni kierunek wiatru:10 °
Średnia prędkość wiatru:6 węzłów
Widzialność:10 km i więcej
Pierwsza warstwa chmur:1/8 do 2/8, wysokość podstawy 3000 FT
Temperatura powietrza:14 °C
Temperatura punktu rosy:5 °C
Ciśnienie QNH:1024 hPa
Dokładna temperatura powietrza:14,0 °C
Dokładna wilgotność względna:53 %
Zachmurzenie przez wszystkie piętra chmur:2/8
Zachmurzenie przez chmury niskie:2/8
Awiacja.imgw.pl jest pogodowym serwisem informacyjnym
Instytutu Meteorologii i Gospodarki Wodnej Państwowego Instytutu Badawczego.
Copyright IMGW PIB 2009-2011© Wszelkie prawa zastrzeżone.